Latest Weather Observations for Creal Reef

IDQ60801

Issued at 6:32 pm EST Tuesday 7 July 2015 (issued every 30 minutes, with the page automatically refreshed every 10 minutes)

About weather observations | Map of weather stations | Latest weather observations for QLD | Other Formats
Station Details ID: 200736 Name: CREAL REEF Lat: -20.53 Lon: 150.38 Height: 1.7 m
Data from the previous 72 hours. | See also: Recent months for locations in Queensland
Date/Time
EST
Temp
°C
App
Temp
°C
Dew
Point
Rel
Hum
%
Delta-T
°C
Wind Press
QNH
hPa
Press
MSL
hPa
Rain
since 9 am
mm
Dir
 
Spd
km/h
Gust
km/h
Spd
kts
Gust
kts
07/06:30pm 22.2 - - - - SSE 22 28 12 15 1016.3 - -
07/06:20pm 22.1 - - - - SSE 22 24 12 13 1016.2 1016.1 -
07/06:00pm 22.2 - - - - SSE 20 26 11 14 1016.2 - -
07/05:30pm 22.2 - - - - SSE 20 24 11 13 1016.0 - -
07/05:20pm 22.1 - - - - SSE 19 - 10 - - 1015.8 -
07/05:00pm 22.2 - - - - SSE 22 26 12 14 1015.6 - -
07/04:30pm 22.4 - - - - SSE 24 28 13 15 1015.5 - -
07/04:20pm 22.4 - - - - SE 22 - 12 - - 1015.3 -
07/04:00pm 22.3 - - - - SE 24 28 13 15 1015.3 - -
07/03:30pm 22.1 - - - - SE 24 26 13 14 1015.1 - -
07/03:20pm 22.2 - - - - SE 24 - 13 - - 1015.0 -
07/03:00pm 22.0 - - - - SE 22 28 12 15 1015.1 - -
07/02:30pm 22.0 - - - - SE 24 30 13 16 1015.1 - -
07/02:20pm 22.1 - - - - SE 24 - 13 - - 1015.1 -
07/02:00pm 22.1 - - - - SE 24 30 13 16 1015.3 - -
07/01:30pm 22.2 - - - - SSE 20 26 11 14 1015.6 - -
07/01:20pm 22.3 - - - - SSE 19 - 10 - - 1015.6 -
07/01:00pm 22.1 - - - - SSE 20 24 11 13 1015.8 - -
07/12:30pm 22.2 - - - - SSE 20 26 11 14 1016.1 - -
07/12:20pm 22.2 - - - - SSE 22 - 12 - - 1016.1 -
07/12:00pm 22.3 - - - - SSE 24 28 13 15 1016.5 - -
07/11:30am 22.6 - - - - SE 17 20 9 11 1017.0 - -
07/11:20am 22.5 - - - - SE 17 - 9 - - 1017.1 -
07/11:00am 22.5 - - - - SE 20 24 11 13 1017.4 - -
07/10:30am 22.7 - - - - SSE 19 24 10 13 1017.5 - -
07/10:20am 22.7 - - - - SE 19 - 10 - - 1017.5 -
07/10:00am 22.6 - - - - SE 19 24 10 13 1017.6 - -
07/09:30am 22.4 - - - - SE 20 26 11 14 1017.7 - -
07/09:20am 22.4 - - - - SE 22 - 12 - - 1017.6 -
07/09:00am 22.4 - - - - SE 22 26 12 14 1017.7 - -
07/08:30am 22.2 - - - - SE 20 26 11 14 1017.4 - -
07/08:20am 22.3 - - - - SE 20 - 11 - - 1017.2 -
07/08:00am 22.0 - - - - SE 22 26 12 14 1017.0 - -
07/07:30am 22.1 - - - - SE 22 26 12 14 1016.7 - -
07/07:20am 22.0 - - - - SE 22 - 12 - - 1016.5 -
07/07:00am 21.8 - - - - SSE 22 26 12 14 1016.5 - -
07/06:30am 21.8 - - - - SSE 20 28 11 15 1016.1 - -
07/06:20am 21.9 - - - - SSE 20 - 11 - - 1015.9 -
07/06:00am 21.7 - - - - SE 22 28 12 15 1015.7 - -
07/05:30am 21.8 - - - - SE 22 28 12 15 1015.5 - -
07/05:20am 21.8 - - - - SE 20 - 11 - - 1015.2 -
07/05:00am 21.6 - - - - SE 22 28 12 15 1015.1 - -
07/04:30am 21.6 - - - - SSE 24 30 13 16 1015.0 - -
07/04:20am 21.5 - - - - SSE 26 - 14 - - 1014.9 -
07/03:30am 21.3 - - - - SE 22 28 12 15 1015.1 - -
07/03:20am 21.4 - - - - SE 24 - 13 - - 1015.0 -
07/03:00am 21.5 - - - - SE 24 30 13 16 1015.2 - -
07/02:30am 21.4 - - - - SE 24 32 13 17 1015.4 - -
07/02:20am 21.5 - - - - SE 24 - 13 - - 1015.4 -
07/02:00am 21.6 - - - - SE 22 28 12 15 1015.6 - -
07/01:30am 21.6 - - - - SE 24 28 13 15 1016.0 - -
07/01:20am 21.7 - - - - SE 24 - 13 - - 1016.0 -
07/01:00am 21.7 - - - - SE 24 28 13 15 1016.3 - -
07/12:30am 21.7 - - - - ESE 24 28 13 15 1016.6 - -
07/12:20am 21.6 - - - - ESE 24 - 13 - - 1016.6 -
07/12:00am 21.8 - - - - ESE 24 28 13 15 1016.9 - -
 
Date/Time
EST
Temp
°C
App
Temp
°C
Dew
Point
Rel
Hum
%
Delta-T
°C
Wind Press
QNH
hPa
Press
MSL
hPa
Rain
since 9 am
mm
Dir
 
Spd
km/h
Gust
km/h
Spd
kts
Gust
kts
06/11:30pm 21.7 - - - - ESE 22 26 12 14 1017.0 - -
06/11:20pm 21.9 - - - - ESE 22 - 12 - - 1017.0 -
06/11:00pm 21.6 - - - - ESE 22 26 12 14 1017.3 - -
06/10:30pm 21.9 - - - - ESE 22 28 12 15 1017.2 - -
06/10:20pm 21.7 - - - - ESE 22 - 12 - - 1017.2 -
06/10:00pm 21.7 - - - - ESE 22 24 12 13 1017.3 - -
06/09:30pm 21.9 - - - - SE 20 24 11 13 1017.3 - -
06/09:20pm 21.7 - - - - SE 20 - 11 - - 1017.1 -
06/09:00pm 21.8 - - - - SE 19 24 10 13 1017.3 - -
06/08:30pm 21.8 - - - - SE 20 26 11 14 1017.4 - -
06/08:20pm 21.9 - - - - SE 20 - 11 - - 1017.3 -
06/08:00pm 21.7 - - - - SE 20 28 11 15 1017.3 - -
06/07:30pm 21.8 - - - - SE 20 26 11 14 1017.1 - -
06/07:20pm 21.7 - - - - SE 20 - 11 - - 1016.9 -
06/07:00pm 21.8 - - - - SE 20 26 11 14 1016.9 - -
06/06:30pm 21.9 - - - - SE 20 26 11 14 1016.5 - -
06/06:20pm 22.0 - - - - SE 20 - 11 - - 1016.3 -
06/06:00pm 21.9 - - - - SSE 19 24 10 13 1016.3 - -
06/05:30pm 22.0 - - - - SE 20 26 11 14 1016.0 - -
06/05:20pm 22.0 - - - - SSE 20 - 11 - - 1015.8 -
06/05:00pm 22.1 - - - - SSE 19 22 10 12 1015.9 - -
06/04:30pm 22.0 - - - - SSE 20 24 11 13 1015.7 - -
06/04:20pm 22.3 - - - - SSE 20 - 11 - - 1015.6 -
06/04:00pm 22.3 - - - - SSE 20 26 11 14 1015.6 - -
06/03:30pm 22.1 - - - - SE 20 26 11 14 1015.6 - -
06/03:20pm 22.1 - - - - SE 19 - 10 - - 1015.5 -
06/03:00pm 22.2 - - - - SE 22 26 12 14 1015.5 - -
06/02:30pm 22.1 - - - - SE 22 32 12 17 1015.7 - -
06/02:20pm 22.1 - - - - SE 22 - 12 - - 1015.7 -
06/02:00pm 22.1 - - - - SE 24 28 13 15 1015.9 - -
06/01:30pm 22.1 - - - - SE 26 32 14 17 1016.1 - -
06/01:20pm 22.0 - - - - SE 24 - 13 - - 1016.1 -
06/01:00pm 22.0 - - - - SE 26 30 14 16 1016.4 - -
06/12:30pm 22.2 - - - - SE 26 30 14 16 1016.9 - -
06/12:20pm 22.0 - - - - SE 26 - 14 - - 1016.9 -
06/12:00pm 22.2 - - - - ESE 26 32 14 17 1017.3 - -
06/11:30am 22.2 - - - - SE 26 32 14 17 1017.6 - -
06/11:20am 22.2 - - - - ESE 28 - 15 - - 1017.6 -
06/11:00am 22.3 - - - - SE 30 35 16 19 1017.9 - -
06/10:30am 22.5 - - - - SE 28 33 15 18 1018.0 - -
06/10:20am 22.3 - - - - SE 30 - 16 - - 1018.0 -
06/10:00am 22.2 - - - - SE 30 35 16 19 1018.2 - -
06/09:30am 22.1 - - - - SE 32 35 17 19 1018.4 - -
06/09:20am 22.0 - - - - SE 32 - 17 - - 1018.4 -
06/09:00am 21.9 - - - - SE 32 37 17 20 1018.5 - -
06/08:30am 21.9 - - - - SE 33 39 18 21 1018.2 - -
06/08:20am 21.8 - - - - SE 35 - 19 - - 1018.0 -
06/08:00am 21.7 - - - - SE 33 39 18 21 1017.9 - -
06/07:30am 21.7 - - - - ESE 35 39 19 21 1017.8 - -
06/07:20am 21.7 - - - - SE 35 - 19 - - 1017.7 -
06/07:00am 21.6 - - - - SE 33 39 18 21 1017.6 - -
06/06:30am 21.8 - - - - SE 35 39 19 21 1017.3 - -
06/06:20am 21.7 - - - - SE 35 - 19 - - 1017.2 -
06/06:00am 21.9 - - - - SE 33 39 18 21 1017.3 - -
06/05:30am 21.8 - - - - SE 33 37 18 20 1017.0 - -
06/05:20am 21.8 - - - - SE 33 - 18 - - 1016.9 -
06/05:00am 22.0 - - - - SE 32 39 17 21 1017.0 - -
06/04:30am 21.7 - - - - SE 33 39 18 21 1016.9 - -
06/04:20am 21.7 - - - - SE 33 - 18 - - 1016.8 -
06/04:00am 21.8 - - - - SE 33 37 18 20 1017.0 - -
06/03:30am 21.8 - - - - SE 33 41 18 22 1017.1 - -
06/03:20am 21.8 - - - - SE 32 - 17 - - 1017.0 -
06/03:00am 21.9 - - - - SE 35 39 19 21 1017.1 - -
06/02:30am 21.8 - - - - SE 35 41 19 22 1017.2 - -
06/02:20am 21.6 - - - - SE 33 - 18 - - 1017.2 -
06/02:00am 21.8 - - - - SE 32 39 17 21 1017.4 - -
06/01:30am 21.8 - - - - SE 30 39 16 21 1017.8 - -
06/01:20am 21.9 - - - - SE 30 - 16 - - 1017.9 -
06/01:00am 21.7 - - - - SE 33 37 18 20 1018.2 - -
06/12:30am 21.8 - - - - SE 32 37 17 20 1018.3 - -
06/12:20am 21.8 - - - - SE 30 - 16 - - 1018.2 -
06/12:00am 21.9 - - - - SE 32 35 17 19 1018.4 - -
 
Date/Time
EST
Temp
°C
App
Temp
°C
Dew
Point
Rel
Hum
%
Delta-T
°C
Wind Press
QNH
hPa
Press
MSL
hPa
Rain
since 9 am
mm
Dir
 
Spd
km/h
Gust
km/h
Spd
kts
Gust
kts
05/11:30pm 22.0 - - - - SE 32 39 17 21 1018.5 - -
05/11:20pm 21.9 - - - - SE 30 - 16 - - 1018.5 -
05/11:00pm 21.8 - - - - SE 28 33 15 18 1018.9 - -
05/10:30pm 22.0 - - - - ESE 30 37 16 20 1019.0 - -
05/10:20pm 21.8 - - - - ESE 30 - 16 - - 1018.8 -
05/10:00pm 21.8 - - - - ESE 30 33 16 18 1018.9 - -
05/09:30pm 21.7 - - - - ESE 33 39 18 21 1019.0 - -
05/09:20pm 21.8 - - - - ESE 33 - 18 - - 1018.8 -
05/09:00pm 21.9 - - - - ESE 33 37 18 20 1018.7 - -
05/08:30pm 21.8 - - - - E 33 37 18 20 1018.7 - -
05/08:20pm 21.9 - - - - E 35 - 19 - - 1018.5 -
05/08:00pm 21.9 - - - - ESE 33 39 18 21 1018.5 - -
05/07:30pm 22.1 - - - - ESE 35 41 19 22 1018.2 - -
05/07:20pm 22.0 - - - - ESE 35 - 19 - - 1018.1 -
05/07:00pm 22.0 - - - - ESE 35 41 19 22 1018.0 - -
05/06:30pm 22.1 - - - - ESE 33 39 18 21 1017.8 - -
05/06:20pm 22.1 - - - - ESE 33 - 18 - - 1017.5 -
05/06:00pm 22.2 - - - - ESE 33 39 18 21 1017.5 - -
05/05:30pm 22.1 - - - - SE 35 39 19 21 1017.3 - -
05/05:20pm 22.3 - - - - SE 35 - 19 - - 1017.1 -
05/05:00pm 22.2 - - - - SE 33 39 18 21 1017.2 - -
05/04:30pm 21.9 - - - - SE 33 39 18 21 1017.2 - -
05/04:20pm 21.9 - - - - SE 35 - 19 - - 1017.1 -
05/04:00pm 22.3 - - - - SE 32 37 17 20 1017.1 - -
05/03:30pm 22.0 - - - - SE 30 35 16 19 1017.1 - -
05/03:20pm 22.2 - - - - SE 32 - 17 - - 1017.0 -
05/03:00pm 22.1 - - - - SE 33 39 18 21 1017.2 - -
05/02:30pm 21.7 - - - - SE 33 41 18 22 1017.3 - -
05/02:20pm 22.0 - - - - SE 33 - 18 - - 1017.2 -
05/02:00pm 21.9 - - - - SE 33 39 18 21 1017.3 - -
05/01:30pm 21.6 - - - - SE 33 35 18 19 1017.6 - -
05/01:20pm 21.6 - - - - SE 35 - 19 - - 1017.7 -
05/01:00pm 21.6 - - - - SE 35 39 19 21 1017.9 - -
05/12:30pm 21.3 - - - - SSE 28 32 15 17 1018.2 - -
05/12:20pm 22.0 - - - - SSE 24 - 13 - - 1018.3 -
05/12:00pm 22.0 - - - - E 30 32 16 17 1018.6 - -
05/11:30am 22.2 - - - - ESE 22 32 12 17 1018.9 - -
05/11:20am 22.1 - - - - SE 11 - 6 - - 1019.0 -
05/11:00am 21.5 - - - - ESE 15 17 8 9 1019.4 - -
05/10:30am 20.5 - - - - E 13 19 7 10 1019.6 - -
05/10:20am 20.1 - - - - E 24 - 13 - - 1019.6 -
05/10:00am 21.6 - - - - SE 26 32 14 17 1019.5 - -
05/09:30am 19.6 - - - - E 32 39 17 21 1019.9 - -
05/09:21am 20.6 - - - - E 37 43 20 23 1019.8 - -
05/09:20am 21.0 - - - - ESE 33 - 18 - - 1019.7 -
05/09:00am 21.3 - - - - SE 22 30 12 16 1019.6 - -
05/08:30am 21.7 - - - - ESE 24 30 13 16 1019.3 - -
05/08:20am 21.6 - - - - E 26 - 14 - - 1019.1 -
05/08:00am 21.4 - - - - ESE 22 26 12 14 1019.0 - -
05/07:30am 21.1 - - - - SE 22 26 12 14 1018.7 - -
05/07:20am 20.6 - - - - ESE 19 - 10 - - 1018.4 -
05/07:00am 19.7 - - - - E 15 20 8 11 1018.5 - -
05/06:30am 19.5 - - - - SSE 26 33 14 18 1018.5 - -
05/06:20am 20.2 - - - - SSE 24 - 13 - - 1018.2 -
05/06:00am 20.2 - - - - SSE 24 32 13 17 1018.1 - -
05/05:30am 20.0 - - - - SSE 22 28 12 15 1017.9 - -
05/05:20am 20.0 - - - - SE 20 - 11 - - 1017.8 -
05/05:00am 20.3 - - - - SE 30 39 16 21 1017.9 - -
05/04:30am 21.0 - - - - SE 32 37 17 20 1017.6 - -
05/04:20am 21.0 - - - - SE 30 - 16 - - 1017.5 -
05/04:00am 21.0 - - - - ESE 35 39 19 21 1017.5 - -
05/03:30am 21.2 - - - - ESE 28 33 15 18 1017.6 - -
05/03:20am 20.9 - - - - ESE 30 - 16 - - 1017.5 -
05/03:00am 21.0 - - - - ESE 32 37 17 20 1017.5 - -
05/02:30am 20.7 - - - - E 39 46 21 25 1017.7 - -
05/02:20am 20.7 - - - - E 41 - 22 - - 1017.6 -
05/02:00am 21.6 - - - - ESE 35 43 19 23 1017.7 - -
05/01:30am 21.2 - - - - SE 39 43 21 23 1017.9 - -
05/01:20am 21.5 - - - - SE 39 - 21 - - 1017.8 -
05/01:00am 22.0 - - - - SE 39 46 21 25 1018.0 - -
05/12:30am 21.8 - - - - SE 35 41 19 22 1018.4 - -
05/12:20am 21.9 - - - - SE 33 - 18 - - 1018.4 -
05/12:00am 21.8 - - - - SE 35 41 19 22 1018.5 - -
 
Date/Time
EST
Temp
°C
App
Temp
°C
Dew
Point
Rel
Hum
%
Delta-T
°C
Wind Press
QNH
hPa
Press
MSL
hPa
Rain
since 9 am
mm
Dir
 
Spd
km/h
Gust
km/h
Spd
kts
Gust
kts
04/11:30pm 21.5 - - - - SE 37 44 20 24 1018.8 - -
04/11:20pm 21.9 - - - - SE 35 - 19 - - 1018.7 -
04/11:00pm 21.9 - - - - SE 32 37 17 20 1018.9 - -
04/10:48pm 22.0 - - - - ESE 33 41 18 22 1019.0 - -
04/10:40pm 21.5 - - - - E 37 41 20 22 1019.1 - -
04/10:30pm 21.6 - - - - SE 32 39 17 21 1019.1 - -
04/10:20pm 21.3 - - - - S 24 - 13 - - 1019.0 -
04/10:15pm 20.4 - - - - SE 28 46 15 25 1019.3 - -
04/10:00pm 21.2 - - - - SE 30 41 16 22 1019.3 - -
04/09:30pm 21.8 - - - - SE 30 35 16 19 1019.4 - -
04/09:20pm 21.5 - - - - SE 28 - 15 - - 1019.3 -
04/09:00pm 21.4 - - - - SE 30 37 16 20 1019.4 - -
04/08:30pm 21.2 - - - - SE 33 41 18 22 1019.3 - -
04/08:20pm 21.6 - - - - SE 33 - 18 - - 1019.1 -
04/08:00pm 21.4 - - - - SE 32 37 17 20 1019.0 - -
04/07:30pm 21.2 - - - - SE 28 35 15 19 1018.9 - -
04/07:20pm 21.1 - - - - SE 30 - 16 - - 1018.6 -
04/07:00pm 21.6 - - - - SE 32 41 17 22 1018.5 - -

Other Formats:

Comma delimited format used in spreadsheet applications
http://www.bom.gov.au/fwo/IDQ60801/IDQ60801.94371.axf

JavaScript Object Notation format (JSON) in row-major order
http://www.bom.gov.au/fwo/IDQ60801/IDQ60801.94371.json